This is the latest recevied weather packets stored in our database for station/object IK1QAD-3. If no packets are shown the sender has not sent any weather packets the latest 10 day(s).
| Time | Temp. | Humidity | Pressure | Rain* | Wind** | Luminosity | Snow |
|---|---|---|---|---|---|---|---|
| 1777595008 | 16.11° C | 57% | 1022.5 hPa | 0 mm | - | - | - |
| 1777594721 | 16.67° C | 55% | 1022.3 hPa | 0 mm | - | - | - |
| 1777594416 | 16.67° C | 56% | 1022.3 hPa | 0 mm | - | - | - |
| 1777594116 | 16.11° C | 58% | 1022.3 hPa | 0 mm | - | - | - |
| 1777593815 | 16.11° C | 58% | 1022.3 hPa | 0 mm | - | - | - |
| 1777593509 | 15.56° C | 58% | 1022.1 hPa | 0 mm | - | - | - |
| 1777593208 | 15° C | 62% | 1022.2 hPa | 0 mm | - | - | - |
| 1777592907 | 15.56° C | 59% | 1022.1 hPa | 0 mm | - | - | - |
| 1777592619 | 15.56° C | 57% | 1022.2 hPa | 0 mm | - | - | - |
| 1777592319 | 15° C | 60% | 1022 hPa | 0 mm | - | - | - |
| 1777592012 | 15.56° C | 60% | 1022 hPa | 0 mm | - | - | - |
| 1777591709 | 16.11° C | 58% | 1022.1 hPa | 0 mm | - | - | - |
| 1777591408 | 16.67° C | 55% | 1021.9 hPa | 0 mm | - | - | - |
| 1777591122 | 16.67° C | 56% | 1021.9 hPa | 0 mm | - | - | - |
| 1777590820 | 15.56° C | 58% | 1021.8 hPa | 0 mm | - | - | - |
| 1777590515 | 15.56° C | 59% | 1021.9 hPa | 0 mm | - | - | - |
| 1777590210 | 16.11° C | 58% | 1021.8 hPa | 0 mm | - | - | - |
| 1777589909 | 16.11° C | 58% | 1021.8 hPa | 0 mm | - | - | - |
| 1777589623 | 16.11° C | 58% | 1021.7 hPa | 0 mm | - | - | - |
| 1777589322 | 16.11° C | 58% | 1021.7 hPa | 0 mm | - | - | - |
| 1777589016 | 16.11° C | 58% | 1021.8 hPa | 0 mm | - | - | - |
| 1777588717 | 16.67° C | 57% | 1021.7 hPa | 0 mm | - | - | - |
| 1777588414 | 16.11° C | 57% | 1021.6 hPa | 0 mm | - | - | - |
| 1777588105 | 16.67° C | 57% | 1021.7 hPa | 0 mm | - | - | - |
| 1777587806 | 16.67° C | 57% | 1021.7 hPa | 0 mm | - | - | - |
* Rain latest hour (hover to see other rain measurements)
** Current wind speed in m/s (hover to see current wind gust speed)